createdAt,value
2022-08-01T00:00:21.183Z,100485.63
2022-08-01T00:04:22.865Z,100483.84
2022-08-01T00:08:24.615Z,100482.16
2022-08-01T00:12:26.308Z,100487.41
2022-08-01T00:16:28.071Z,100484.84
2022-08-01T00:20:29.664Z,100482.28
2022-08-01T00:24:31.558Z,100485.88
2022-08-01T00:28:33.192Z,100487.69
2022-08-01T00:32:34.829Z,100492.97
2022-08-01T00:36:36.413Z,100488.66
2022-08-01T00:40:38.167Z,100501.16
2022-08-01T00:44:40.458Z,100504.94
2022-08-01T00:48:42.218Z,100507.84
2022-08-01T00:52:51.382Z,100506.25
2022-08-01T00:56:54.234Z,100497.50
2022-08-01T01:00:55.844Z,100502.66
2022-08-01T01:04:58.472Z,100501.16
2022-08-01T01:09:19.801Z,100502.22
2022-08-01T01:13:27.462Z,100510.84
2022-08-01T01:17:51.381Z,100500.44
2022-08-01T01:22:09.700Z,100500.44
2022-08-01T01:26:30.232Z,100502.16
2022-08-01T01:30:34.050Z,100504.00
2022-08-01T01:34:38.626Z,100503.16
2022-08-01T01:38:45.111Z,100505.94
2022-08-01T01:42:47.597Z,100513.06
2022-08-01T01:46:52.962Z,100512.25
2022-08-01T01:50:55.455Z,100524.47
2022-08-01T01:54:58.276Z,100525.38
2022-08-01T01:59:03.623Z,100530.69
2022-08-01T02:03:08.537Z,100525.53
2022-08-01T02:07:13.475Z,100524.66
2022-08-01T02:11:21.729Z,100522.91
2022-08-01T02:15:24.294Z,100525.53
2022-08-01T02:19:26.226Z,100529.94
2022-08-01T02:23:33.888Z,100531.78
2022-08-01T02:27:42.766Z,100533.50
2022-08-01T02:31:47.917Z,100528.22
2022-08-01T02:36:29.097Z,100538.59
2022-08-01T02:40:18.209Z,100539.38
2022-08-01T02:44:26.138Z,100535.75
2022-08-01T02:48:29.301Z,100527.91
2022-08-01T02:52:33.742Z,100540.13
2022-08-01T02:56:36.999Z,100526.28
2022-08-01T03:00:41.446Z,100533.31
2022-08-01T03:04:44.762Z,100534.34
2022-08-01T03:08:49.643Z,100533.56
2022-08-01T03:12:52.184Z,100540.53
2022-08-01T03:16:55.994Z,100532.81
2022-08-01T03:21:00.036Z,100530.34
2022-08-01T03:25:04.109Z,100536.47
2022-08-01T03:29:10.777Z,100529.44
2022-08-01T03:33:14.415Z,100537.28
2022-08-01T03:37:25.253Z,100534.66
2022-08-01T03:41:32.357Z,100539.88
2022-08-01T03:45:42.233Z,100540.78
2022-08-01T03:49:45.875Z,100538.22
2022-08-01T03:53:48.844Z,100552.28
2022-08-01T03:57:51.601Z,100550.59
2022-08-01T04:01:53.925Z,100551.47
2022-08-01T04:05:55.731Z,100544.47
2022-08-01T04:09:57.779Z,100542.78
2022-08-01T04:13:59.405Z,100538.50
2022-08-01T04:18:01.026Z,100536.78
2022-08-01T04:22:03.978Z,100541.13
2022-08-01T04:26:07.690Z,100544.56
2022-08-01T04:30:10.461Z,100550.63
2022-08-01T04:34:25.357Z,100556.69
2022-08-01T04:38:28.784Z,100557.59
2022-08-01T04:42:33.532Z,100562.78
2022-08-01T04:46:37.780Z,100567.88
2022-08-01T04:50:39.480Z,100573.81
2022-08-01T04:54:41.315Z,100565.84
2022-08-01T04:58:43.978Z,100563.06
2022-08-01T05:02:45.910Z,100559.59
2022-08-01T05:06:47.584Z,100558.69
2022-08-01T05:10:49.223Z,100570.81
2022-08-01T05:14:50.908Z,100565.53
2022-08-01T05:18:53.070Z,100560.25
2022-08-01T05:22:54.819Z,100563.75
2022-08-01T05:26:57.205Z,100567.28
2022-08-01T05:30:58.877Z,100579.72
2022-08-01T05:35:00.857Z,100574.66
2022-08-01T05:39:02.452Z,100578.22
2022-08-01T05:43:04.065Z,100582.69
2022-08-01T05:47:05.868Z,100577.56
2022-08-01T05:51:07.425Z,100583.69
2022-08-01T05:55:10.241Z,100583.72
2022-08-01T05:59:11.818Z,100588.03
2022-08-01T06:03:13.793Z,100592.25
2022-08-01T06:07:15.402Z,100599.06
2022-08-01T06:11:17.184Z,100605.75
2022-08-01T06:15:18.990Z,100592.16
2022-08-01T06:19:20.651Z,100593.47
2022-08-01T06:23:32.334Z,100597.34
2022-08-01T06:27:37.601Z,100605.59
2022-08-01T06:31:39.198Z,100603.28
2022-08-01T06:35:40.880Z,100605.81
2022-08-01T06:39:43.150Z,100593.25
2022-08-01T06:43:44.723Z,100600.94
2022-08-01T06:47:48.830Z,100604.50
2022-08-01T06:51:53.495Z,100607.97
2022-08-01T06:55:55.045Z,100610.44
2022-08-01T06:59:56.993Z,100607.91
2022-08-01T07:03:58.729Z,100620.16
2022-08-01T07:08:00.350Z,100612.34
2022-08-01T07:12:01.919Z,100622.59
2022-08-01T07:16:03.668Z,100618.81
2022-08-01T07:20:06.888Z,100617.81
2022-08-01T07:24:15.394Z,100609.88
2022-08-01T07:28:17.099Z,100598.22
2022-08-01T07:32:18.708Z,100598.63
2022-08-01T07:36:20.385Z,100597.63
2022-08-01T07:40:22.122Z,100599.75
2022-08-01T07:44:23.723Z,100600.13
2022-08-01T07:48:25.819Z,100593.06
2022-08-01T07:52:28.009Z,100596.06
2022-08-01T07:56:29.702Z,100590.44
2022-08-01T08:00:31.341Z,100588.38
2022-08-01T08:04:32.996Z,100595.41
2022-08-01T08:08:35.625Z,100588.59
2022-08-01T08:12:37.521Z,100599.22
2022-08-01T08:16:39.383Z,100597.56
2022-08-01T08:20:41.399Z,100592.78
2022-08-01T08:24:45.612Z,100599.47
2022-08-01T08:28:48.285Z,100600.53
2022-08-01T08:32:49.941Z,100607.34
2022-08-01T08:36:52.298Z,100593.19
2022-08-01T08:40:54.312Z,100594.53
2022-08-01T08:44:56.200Z,100586.75
2022-08-01T08:48:58.112Z,100582.28
2022-08-01T08:53:02.266Z,100583.78
2022-08-01T08:57:08.505Z,100589.59
2022-08-01T09:01:11.070Z,100574.38
2022-08-01T09:05:17.566Z,100573.25
2022-08-01T09:09:21.240Z,100582.13
2022-08-01T09:13:23.042Z,100575.81
2022-08-01T09:17:24.638Z,100575.88
2022-08-01T09:21:26.762Z,100570.91
2022-08-01T09:25:36.746Z,100575.22
2022-08-01T09:29:49.887Z,100576.50
2022-08-01T09:34:04.909Z,100578.47
2022-08-01T09:38:15.200Z,100580.22
2022-08-01T09:42:28.841Z,100576.63
2022-08-01T09:46:31.203Z,100578.69
2022-08-01T09:50:41.177Z,100579.31
2022-08-01T09:54:44.403Z,100579.19
2022-08-01T09:58:58.320Z,100591.59
2022-08-01T10:03:19.851Z,100592.19
2022-08-01T10:07:27.922Z,100584.06
2022-08-01T10:11:45.470Z,100581.47
2022-08-01T10:15:47.245Z,100571.00
2022-08-01T10:19:51.433Z,100562.84
2022-08-01T10:23:59.897Z,100572.94
2022-08-01T10:28:18.127Z,100569.78
2022-08-01T10:32:23.573Z,100570.41
2022-08-01T10:36:27.333Z,100572.16
2022-08-01T10:40:31.905Z,100565.63
2022-08-01T10:44:34.367Z,100566.88
2022-08-01T10:49:16.306Z,100558.41
2022-08-01T10:53:30.828Z,100559.84
2022-08-01T10:57:52.441Z,100561.84
2022-08-01T11:01:59.468Z,100563.47
2022-08-01T11:06:01.915Z,100563.06
2022-08-01T11:10:14.672Z,100552.00
2022-08-01T11:14:16.761Z,100544.94
2022-08-01T11:18:53.407Z,100542.66
2022-08-01T11:23:07.136Z,100539.25
2022-08-01T11:27:24.044Z,100535.72
2022-08-01T11:31:27.367Z,100525.22
2022-08-01T11:35:29.265Z,100524.09
2022-08-01T11:39:35.452Z,100521.28
2022-08-01T11:44:06.516Z,100515.72
2022-08-01T11:48:19.478Z,100517.84
2022-08-01T11:52:33.381Z,100508.84
2022-08-01T11:56:40.222Z,100508.59
2022-08-01T12:00:55.524Z,100502.31
2022-08-01T12:05:01.992Z,100503.31
2022-08-01T12:09:24.467Z,100489.41
2022-08-01T12:13:26.192Z,100496.41
2022-08-01T12:17:33.388Z,100483.09
2022-08-01T12:21:34.999Z,100486.28
2022-08-01T12:25:38.057Z,100486.91
2022-08-01T12:29:42.257Z,100479.50
2022-08-01T12:33:43.995Z,100477.91
2022-08-01T12:37:50.047Z,100478.91
2022-08-01T12:41:51.767Z,100472.72
2022-08-01T12:45:54.493Z,100476.03
2022-08-01T12:49:59.340Z,100477.09
2022-08-01T12:54:00.984Z,100476.69
2022-08-01T12:58:11.486Z,100475.19
2022-08-01T13:02:17.337Z,100473.44
2022-08-01T13:06:18.995Z,100471.88
2022-08-01T13:10:47.577Z,100468.31
2022-08-01T13:14:49.248Z,100475.59
2022-08-01T13:18:53.015Z,100465.75
2022-08-01T13:22:55.420Z,100468.72
2022-08-01T13:27:00.877Z,100466.31
2022-08-01T13:31:07.999Z,100465.72
2022-08-01T13:35:11.227Z,100461.50
2022-08-01T13:39:31.164Z,100467.09
2022-08-01T13:43:58.422Z,100467.44
2022-08-01T13:48:12.297Z,100461.16
2022-08-01T13:52:17.655Z,100461.09
2022-08-01T13:56:20.869Z,100459.50
2022-08-01T14:00:22.558Z,100456.50
2022-08-01T14:04:24.318Z,100449.50
2022-08-01T14:08:26.094Z,100450.03
2022-08-01T14:12:27.715Z,100453.25
2022-08-01T14:16:29.352Z,100444.22
2022-08-01T14:20:30.995Z,100426.81
2022-08-01T14:24:32.667Z,100435.75
2022-08-01T14:28:35.156Z,100439.41
2022-08-01T14:32:36.880Z,100439.63
2022-08-01T14:36:38.975Z,100434.69
2022-08-01T14:40:41.591Z,100435.19
2022-08-01T14:44:44.875Z,100437.13
2022-08-01T14:48:51.718Z,100433.41
2022-08-01T14:52:54.023Z,100436.81
2022-08-01T14:56:55.610Z,100430.22
2022-08-01T15:00:59.250Z,100429.34
2022-08-01T15:05:01.124Z,100430.13
2022-08-01T15:09:08.256Z,100424.91
2022-08-01T15:13:11.165Z,100435.88
2022-08-01T15:17:12.764Z,100431.16
2022-08-01T15:21:24.867Z,100431.94
2022-08-01T15:25:40.824Z,100432.28
2022-08-01T15:29:43.799Z,100433.97
2022-08-01T15:33:45.430Z,100437.31
2022-08-01T15:37:47.042Z,100431.53
2022-08-01T15:41:48.734Z,100435.31
2022-08-01T15:45:50.350Z,100438.31
2022-08-01T15:49:52.714Z,100428.47
2022-08-01T15:53:54.424Z,100434.03
2022-08-01T15:57:56.032Z,100441.25
2022-08-01T16:01:57.691Z,100430.16
2022-08-01T16:06:00.253Z,100439.06
2022-08-01T16:10:01.870Z,100442.56
2022-08-01T16:14:03.588Z,100439.72
2022-08-01T16:18:06.413Z,100444.69
2022-08-01T16:22:08.488Z,100446.88
2022-08-01T16:26:11.856Z,100447.00
2022-08-01T16:30:30.967Z,100445.38
2022-08-01T16:34:33.895Z,100438.44
2022-08-01T16:38:37.303Z,100434.19
2022-08-01T16:42:38.878Z,100449.47
2022-08-01T16:46:40.485Z,100437.63
2022-08-01T16:50:42.844Z,100441.47
2022-08-01T16:54:44.751Z,100436.03
2022-08-01T16:58:46.375Z,100443.19
2022-08-01T17:02:48.112Z,100444.09
2022-08-01T17:06:52.217Z,100442.34
2022-08-01T17:10:53.922Z,100430.47
2022-08-01T17:14:55.773Z,100438.72
2022-08-01T17:18:57.507Z,100437.91
2022-08-01T17:22:59.146Z,100431.59
2022-08-01T17:27:02.323Z,100445.84
2022-08-01T17:31:04.015Z,100447.03
2022-08-01T17:35:12.392Z,100450.41
2022-08-01T17:39:14.165Z,100443.63
2022-08-01T17:43:15.735Z,100451.72
2022-08-01T17:47:40.899Z,100454.94
2022-08-01T17:51:38.980Z,100462.47
2022-08-01T17:55:53.285Z,100457.69
2022-08-01T17:59:59.040Z,100464.84
2022-08-01T18:04:00.687Z,100462.59
2022-08-01T18:08:02.881Z,100462.16
2022-08-01T18:12:04.902Z,100464.38
2022-08-01T18:16:12.852Z,100463.91
2022-08-01T18:20:14.728Z,100470.09
2022-08-01T18:24:17.429Z,100477.13
2022-08-01T18:28:25.770Z,100473.69
2022-08-01T18:32:32.620Z,100481.72
2022-08-01T18:36:34.495Z,100482.72
2022-08-01T18:40:36.226Z,100486.50
2022-08-01T18:44:37.894Z,100499.94
2022-08-01T18:48:39.509Z,100497.81
2022-08-01T18:52:42.589Z,100503.41
2022-08-01T18:56:45.178Z,100513.53
2022-08-01T19:00:46.880Z,100520.00
2022-08-01T19:04:48.511Z,100527.38
2022-08-01T19:08:52.112Z,100528.50
2022-08-01T19:12:53.721Z,100526.06
2022-08-01T19:16:56.429Z,100543.63
2022-08-01T19:20:58.064Z,100537.59
2022-08-01T19:24:59.672Z,100537.41
2022-08-01T19:29:05.393Z,100546.22
2022-08-01T19:33:07.146Z,100548.84
2022-08-01T19:37:09.313Z,100550.78
2022-08-01T19:41:13.751Z,100551.78
2022-08-01T19:45:15.506Z,100552.63
2022-08-01T19:49:19.481Z,100553.47
2022-08-01T19:53:24.351Z,100552.72
2022-08-01T19:57:28.521Z,100561.63
2022-08-01T20:01:49.044Z,100578.63
2022-08-01T20:05:51.230Z,100582.53
2022-08-01T20:09:54.296Z,100582.72
2022-08-01T20:13:57.215Z,100582.94
2022-08-01T20:17:59.348Z,100599.66
2022-08-01T20:22:05.868Z,100605.06
2022-08-01T20:26:09.091Z,100605.09
2022-08-01T20:30:11.791Z,100601.59
2022-08-01T20:34:22.807Z,100605.91
2022-08-01T20:38:27.678Z,100606.84
2022-08-01T20:42:31.357Z,100607.78
2022-08-01T20:46:33.694Z,100606.16
2022-08-01T20:50:55.651Z,100613.25
2022-08-01T20:54:57.260Z,100616.03
2022-08-01T20:59:39.906Z,100623.13
2022-08-01T21:04:06.030Z,100621.34
2022-08-01T21:08:16.217Z,100622.28
2022-08-01T21:12:27.995Z,100629.31
2022-08-01T21:16:33.741Z,100632.03
2022-08-01T21:20:52.746Z,100632.28
2022-08-01T21:24:59.074Z,100640.41
2022-08-01T21:29:04.981Z,100630.09
2022-08-01T21:33:10.794Z,100632.03
2022-08-01T21:37:16.081Z,100635.56
2022-08-01T21:41:18.648Z,100638.44
2022-08-01T21:45:57.905Z,100653.34
2022-08-01T21:50:02.542Z,100650.03
2022-08-01T21:54:25.363Z,100657.13
2022-08-01T21:58:51.782Z,100655.44
2022-08-01T22:03:17.972Z,100669.53
2022-08-01T22:07:22.181Z,100669.69
2022-08-01T22:11:28.120Z,100653.09
2022-08-01T22:15:45.187Z,100673.22
2022-08-01T22:19:50.652Z,100677.63
2022-08-01T22:23:55.171Z,100684.59
2022-08-01T22:28:08.060Z,100687.25
2022-08-01T22:32:14.633Z,100682.81
2022-08-01T22:36:17.159Z,100681.91
2022-08-01T22:40:18.779Z,100689.00
2022-08-01T22:44:30.128Z,100684.78
2022-08-01T22:48:34.751Z,100678.72
2022-08-01T22:52:48.454Z,100678.72
2022-08-01T22:56:55.631Z,100672.66
2022-08-01T23:01:01.381Z,100672.59
2022-08-01T23:05:06.193Z,100676.06
2022-08-01T23:09:09.464Z,100681.34
2022-08-01T23:13:11.800Z,100681.44
2022-08-01T23:17:26.725Z,100684.19
2022-08-01T23:21:32.086Z,100686.03
2022-08-01T23:25:34.204Z,100683.59
2022-08-01T23:29:35.815Z,100673.34
2022-08-01T23:33:37.558Z,100676.91
2022-08-01T23:37:39.277Z,100670.88
2022-08-01T23:41:56.138Z,100677.13
2022-08-01T23:46:04.143Z,100677.19
2022-08-01T23:50:07.827Z,100672.94
2022-08-01T23:54:09.579Z,100665.09
2022-08-01T23:58:12.497Z,100673.84
